Randolph, Alabama
Current Conditions -  °F | °C
As of 2:53 AM on Wednesday 26 Nov 2014 (Local Time) from KEET Reporting Station
Clear Clear  
Wind Chill: 36°   Ceiling: Unl
Heat Index: 40°   Visibility: 10mi
Dew Point: 30°   Wind: 6mph
Humidity: 68%   Direction: 310°NW
Pressure: 30.11"   Gusts: NA
Location:  32.9°N, 86.91°W
Report Text: KEET 260853Z AUTO 31005KT 10SM CLR 04/M01 A3011 RMK AO2 SLP193 T00441011 53002
Loading
Personal Weather Stations






























Interactive Weather Map New forecast layout! Learn more

10-Day Weather Forecast

Advertisements
Track Severe Weather on mobile